Airfield :
LOGIN :

Register | Disclaimer

   EN    FR    IT 

 










Legend :    VFR   Marginal VFR   IFR   Intensive IFR   Very Intensive IFR
Visi :
Ceiling :
>= 8 km
>= 3000ft
5 to 8 km
1000 to 3000 ft
1500m to 5 km
500 to 1000 ft
800 to 1500m
200 to 500 ft
< 800m
< 200 ft
Symbols :   Thunderstorms  Fog  Heavy snow  Heavy precipitations  Wind > 20 kt
SIGMETs :     Misc.  Thunderstorms  Icing  Turbulence  Mountain Waves  Volcanic Ashes






- Airport Elevation : 446 ft
- IATA code : VNE


LFRV - Vannes-Meucon

CURRENT METAR :
  • 070730Z AUTO 35006KT 320V020 9999 OVC009 16/14 Q1029

EXPIRED METARs :
  • 070700Z AUTO 36006KT 9999 OVC008 16/14 Q1029
  • 070630Z AUTO 35005KT 320V020 9999 OVC007 15/14 Q1029
  • 070600Z AUTO 36004KT 300V040 9999 OVC007 14/13 Q1028
  • 070530Z AUTO 34004KT 9999 BKN008 13/13 Q1028
  • 070500Z AUTO 34003KT 300V020 CAVOK 13/12 Q1028
  • 070430Z AUTO VRB02KT CAVOK 12/12 Q1028

TAF N/A



MET'MAP, your aeronautical weather chart ! - Copyright ORBIFLY December 2007 - Disclaimer

ORBIFLY MET'MAP TEAM :

Programming & Development : Alexandra Zaïnal
Original concept : Baudouin d'Aumeries
Technical & hardware support : Manuel Goepfert
Assistance : Marc-Olivier Méhu




SOURCES & CREDITS :

   NOAA